Time;durP1;ratioP1;P1;durP2;ratioP2;P2;SDS_P1;SDS_P2;PMS_P1;PMS_P2;Temp;Humidity;BMP_temperature;BMP_pressure;BME280_temperature;BME280_humidity;BME280_pressure;Samples;Min_cycle;Max_cycle;Signal;HPM_P1;HPM_P2
2023/08/20 00:01:27;;;;;;;6.30;5.80;;;25.60;99.90;;;;;;5012134;28;20499;-74
2023/08/20 00:03:54;;;;;;;11.17;6.47;;;25.60;99.90;;;;;;5008971;28;21297;-74
2023/08/20 00:06:20;;;;;;;6.87;6.27;;;25.50;99.90;;;;;;5014942;28;20458;-75
2023/08/20 00:08:46;;;;;;;7.17;6.50;;;25.50;99.90;;;;;;5010004;28;20474;-75
2023/08/20 00:11:13;;;;;;;5.97;5.47;;;25.50;99.90;;;;;;5012888;28;20478;-74
2023/08/20 00:13:39;;;;;;;6.40;5.80;;;25.50;99.90;;;;;;5011387;28;20954;-75
2023/08/20 00:16:05;;;;;;;7.73;5.93;;;25.60;99.90;;;;;;5015389;28;20480;-75
2023/08/20 00:18:31;;;;;;;6.70;6.00;;;25.50;99.90;;;;;;5016411;28;20977;-74
2023/08/20 00:20:57;;;;;;;7.53;6.30;;;25.50;99.90;;;;;;5028250;28;20260;-75
2023/08/20 00:23:23;;;;;;;6.53;5.93;;;25.50;99.90;;;;;;5017908;28;20509;-74
2023/08/20 00:25:49;;;;;;;7.13;6.43;;;25.50;99.90;;;;;;4997069;28;20543;-74
2023/08/20 00:28:15;;;;;;;5.93;5.43;;;25.40;99.90;;;;;;5030057;28;20314;-74
2023/08/20 00:30:41;;;;;;;6.23;5.70;;;25.40;99.90;;;;;;5007095;28;20302;-75
2023/08/20 00:33:06;;;;;;;7.00;6.40;;;25.40;99.90;;;;;;4996111;28;20222;-74
2023/08/20 00:35:32;;;;;;;7.10;6.43;;;25.40;99.90;;;;;;4998697;28;20227;-74
2023/08/20 00:37:58;;;;;;;6.93;6.10;;;25.40;99.90;;;;;;4994181;28;20232;-75
2023/08/20 00:40:24;;;;;;;7.93;5.80;;;25.30;99.90;;;;;;5028616;28;20473;-75
2023/08/20 00:42:50;;;;;;;6.40;5.90;;;25.30;99.90;;;;;;5007507;28;20224;-74
2023/08/20 00:45:18;;;;;;;6.63;6.03;;;25.30;99.90;;;;;;4995548;28;20231;-74
2023/08/20 00:47:44;;;;;;;7.93;7.00;;;25.30;99.90;;;;;;4994235;28;20235;-74
2023/08/20 00:50:11;;;;;;;7.50;6.80;;;25.20;99.90;;;;;;5014872;28;20478;-74
2023/08/20 00:52:37;;;;;;;6.10;5.57;;;25.20;99.90;;;;;;4992652;28;20697;-75
2023/08/20 00:55:12;;;;;;;7.47;6.33;;;25.30;99.90;;;;;;5012002;28;20469;-74
2023/08/20 00:57:39;;;;;;;6.90;5.97;;;25.20;99.90;;;;;;5007828;28;20473;-74
2023/08/20 01:00:07;;;;;;;6.67;6.07;;;25.20;99.90;;;;;;5011479;28;21058;-74
2023/08/20 01:02:34;;;;;;;7.17;5.80;;;25.20;99.90;;;;;;5010703;28;20470;-74
2023/08/20 01:05:01;;;;;;;6.43;5.83;;;25.10;99.90;;;;;;5009493;28;20482;-74
2023/08/20 01:07:30;;;;;;;9.70;6.57;;;25.20;99.90;;;;;;4996073;28;20560;-75
2023/08/20 01:10:10;;;;;;;6.97;6.27;;;25.20;99.90;;;;;;4991975;28;20535;-75
2023/08/20 01:12:37;;;;;;;6.90;6.20;;;25.10;99.90;;;;;;5009948;28;20523;-75
2023/08/20 01:15:03;;;;;;;8.20;6.87;;;25.10;99.90;;;;;;4996596;28;20465;-75
2023/08/20 01:17:29;;;;;;;7.57;6.83;;;25.10;99.90;;;;;;5014885;28;20479;-74
2023/08/20 01:19:55;;;;;;;9.17;8.33;;;25.10;99.90;;;;;;4993026;28;20301;-75
2023/08/20 01:22:29;;;;;;;6.73;6.20;;;25.10;99.90;;;;;;5011398;28;20306;-75
2023/08/20 01:25:32;;;;;;;8.37;7.57;;;25.10;99.90;;;;;;4992350;28;20277;-74
2023/08/20 01:28:39;;;;;;;6.50;6.00;;;25.00;99.90;;;;;;4993553;28;20610;-74
2023/08/20 01:31:06;;;;;;;7.50;6.70;;;25.00;99.90;;;;;;4908809;28;20468;-74
2023/08/20 01:33:32;;;;;;;8.97;7.07;;;25.00;99.90;;;;;;4914426;28;20527;-74
2023/08/20 01:35:58;;;;;;;8.27;6.60;;;24.90;99.90;;;;;;4958090;28;20478;-74
2023/08/20 01:38:24;;;;;;;7.43;6.77;;;24.90;99.90;;;;;;4996062;28;20457;-74
2023/08/20 01:40:50;;;;;;;9.03;7.20;;;24.80;99.90;;;;;;4992833;28;20829;-74
2023/08/20 01:43:16;;;;;;;7.07;6.43;;;24.80;99.90;;;;;;4997061;28;20307;-75
2023/08/20 01:45:41;;;;;;;7.60;6.87;;;24.80;99.90;;;;;;4983762;28;20215;-75
2023/08/20 01:48:07;;;;;;;8.10;7.33;;;24.80;99.90;;;;;;5015797;28;21135;-74
2023/08/20 01:50:35;;;;;;;9.27;7.43;;;24.80;99.90;;;;;;5014008;28;20226;-74
2023/08/20 01:53:02;;;;;;;8.20;7.03;;;24.80;99.90;;;;;;5010159;28;20220;-73
2023/08/20 01:55:29;;;;;;;6.80;6.10;;;24.70;99.90;;;;;;5016260;28;20468;-74
2023/08/20 01:57:54;;;;;;;9.67;7.70;;;24.70;99.90;;;;;;4996692;28;20557;-74
2023/08/20 02:00:20;;;;;;;7.80;6.77;;;24.50;99.90;;;;;;5013059;28;20720;-74
2023/08/20 02:02:45;;;;;;;7.27;6.57;;;24.50;99.90;;;;;;5025987;28;20678;-74
2023/08/20 02:05:11;;;;;;;8.17;7.40;;;24.50;99.90;;;;;;4996040;28;20240;-74
2023/08/20 02:07:38;;;;;;;7.00;6.30;;;24.50;99.90;;;;;;5010310;28;20247;-75
2023/08/20 02:10:04;;;;;;;8.83;7.50;;;24.50;99.90;;;;;;4996223;28;20567;-74
2023/08/20 02:12:30;;;;;;;9.93;8.07;;;24.50;99.90;;;;;;4993138;28;20226;-74
2023/08/20 02:14:55;;;;;;;8.40;7.67;;;24.50;99.90;;;;;;5022224;28;20467;-74
2023/08/20 02:17:23;;;;;;;9.67;7.20;;;24.40;99.90;;;;;;4995028;28;20234;-74
2023/08/20 02:19:49;;;;;;;8.60;7.80;;;24.30;99.90;;;;;;4994266;28;20477;-75
2023/08/20 02:22:14;;;;;;;10.87;7.70;;;24.40;99.90;;;;;;5031186;28;20958;-74
2023/08/20 02:24:40;;;;;;;8.80;7.83;;;24.40;99.90;;;;;;4995020;28;20260;-74
2023/08/20 02:27:07;;;;;;;9.33;8.33;;;24.40;99.90;;;;;;5034875;28;20228;-74
2023/08/20 02:29:33;;;;;;;7.23;6.57;;;24.40;99.90;;;;;;4998991;28;20590;-74
2023/08/20 02:31:58;;;;;;;8.70;7.90;;;24.40;99.90;;;;;;4997892;28;20337;-74
2023/08/20 02:34:24;;;;;;;8.00;7.30;;;24.30;99.90;;;;;;5033505;28;20215;-74
2023/08/20 02:36:50;;;;;;;9.00;8.23;;;24.20;99.90;;;;;;4997224;28;20262;-74
2023/08/20 02:39:16;;;;;;;8.43;7.00;;;24.20;99.90;;;;;;5033011;28;20235;-74
2023/08/20 02:41:43;;;;;;;7.53;6.83;;;24.20;99.90;;;;;;4998400;28;20220;-74
2023/08/20 02:44:08;;;;;;;8.60;7.80;;;24.20;99.90;;;;;;4999340;28;20552;-74
2023/08/20 02:46:34;;;;;;;10.93;7.27;;;24.20;99.90;;;;;;5017118;28;20501;-74
2023/08/20 02:49:00;;;;;;;8.77;7.97;;;24.20;99.90;;;;;;4998024;28;20220;-74
2023/08/20 02:51:27;;;;;;;8.47;7.57;;;24.20;99.90;;;;;;5034343;28;20356;-74
2023/08/20 02:53:53;;;;;;;7.63;6.93;;;24.30;99.90;;;;;;5012321;28;20465;-75
2023/08/20 02:56:18;;;;;;;8.80;7.90;;;24.20;99.90;;;;;;5000840;28;20569;-74
2023/08/20 02:58:44;;;;;;;8.43;7.63;;;24.20;99.90;;;;;;5011585;28;20826;-74
2023/08/20 03:01:21;;;;;;;7.87;7.17;;;24.20;99.90;;;;;;5030716;28;20836;-74
2023/08/20 03:03:47;;;;;;;8.10;7.37;;;24.30;99.90;;;;;;5013654;28;20309;-75
2023/08/20 03:06:13;;;;;;;7.17;6.47;;;24.20;99.90;;;;;;5016563;28;21097;-74
2023/08/20 03:08:39;;;;;;;8.27;7.47;;;24.20;99.90;;;;;;5029832;28;20489;-75
2023/08/20 03:11:05;;;;;;;7.87;7.17;;;24.20;99.90;;;;;;4998668;28;20222;-74
2023/08/20 03:13:30;;;;;;;8.20;7.40;;;24.10;99.90;;;;;;4999862;28;20246;-74
2023/08/20 03:15:56;;;;;;;7.87;7.10;;;24.10;99.90;;;;;;4997820;28;20231;-74
2023/08/20 03:18:22;;;;;;;10.93;8.13;;;24.10;99.90;;;;;;4999587;28;20729;-74
2023/08/20 03:20:47;;;;;;;8.73;7.17;;;24.10;99.90;;;;;;4997377;28;20705;-74
2023/08/20 03:23:13;;;;;;;9.23;7.50;;;24.10;99.90;;;;;;4999548;28;20265;-74
2023/08/20 03:25:39;;;;;;;7.77;7.00;;;24.10;99.90;;;;;;4997612;28;20216;-74
2023/08/20 03:28:04;;;;;;;7.73;7.07;;;24.10;99.90;;;;;;5031327;28;20334;-75
2023/08/20 03:30:31;;;;;;;9.50;7.17;;;24.10;99.90;;;;;;5016553;28;20243;-74
2023/08/20 03:32:57;;;;;;;7.23;6.60;;;24.00;99.90;;;;;;5012974;28;20450;-75
2023/08/20 03:35:23;;;;;;;12.00;8.17;;;24.00;99.90;;;;;;5030375;28;20215;-74
2023/08/20 03:37:49;;;;;;;8.07;7.27;;;23.90;99.90;;;;;;4995957;28;20572;-75
2023/08/20 03:40:15;;;;;;;8.73;7.87;;;23.90;99.90;;;;;;5016630;28;20590;-75
2023/08/20 03:42:42;;;;;;;9.80;8.80;;;23.90;99.90;;;;;;4979634;28;20301;-75
2023/08/20 03:45:09;;;;;;;9.40;8.30;;;23.90;99.90;;;;;;5031840;28;20581;-75
2023/08/20 03:47:36;;;;;;;9.43;6.97;;;23.90;99.90;;;;;;4999111;28;21179;-74
2023/08/20 03:50:02;;;;;;;8.37;7.57;;;23.90;99.90;;;;;;5022364;28;20234;-75
2023/08/20 03:52:29;;;;;;;8.43;7.37;;;23.80;99.90;;;;;;5016485;28;21093;-75
2023/08/20 03:54:55;;;;;;;9.80;6.80;;;23.80;99.90;;;;;;4995300;28;20517;-75
2023/08/20 03:57:20;;;;;;;8.70;7.80;;;23.80;99.90;;;;;;5014214;28;20250;-74
2023/08/20 03:59:47;;;;;;;8.67;7.47;;;23.90;99.90;;;;;;5011469;28;20227;-74
2023/08/20 04:02:13;;;;;;;9.53;7.50;;;23.80;99.90;;;;;;4999093;28;20808;-73
2023/08/20 04:04:39;;;;;;;7.60;6.93;;;23.80;99.90;;;;;;4996145;28;20474;-74
2023/08/20 04:07:05;;;;;;;8.37;7.40;;;23.70;99.90;;;;;;5000121;28;20466;-74
2023/08/20 04:09:33;;;;;;;8.37;7.50;;;23.70;99.90;;;;;;4998978;28;20759;-74
2023/08/20 04:11:59;;;;;;;8.40;7.60;;;23.70;99.90;;;;;;5012234;28;20478;-74
2023/08/20 04:14:24;;;;;;;8.07;7.27;;;23.70;99.90;;;;;;4999192;28;20481;-74
2023/08/20 04:16:52;;;;;;;9.00;6.83;;;23.70;99.90;;;;;;4996077;28;20231;-75
2023/08/20 04:19:17;;;;;;;9.07;8.03;;;23.70;99.90;;;;;;5000920;28;20492;-74
2023/08/20 04:21:43;;;;;;;10.60;7.33;;;23.70;99.90;;;;;;4995735;28;20346;-75
2023/08/20 04:24:08;;;;;;;7.70;7.00;;;23.70;99.90;;;;;;4996618;28;20242;-74
2023/08/20 04:26:34;;;;;;;8.40;7.23;;;23.60;99.90;;;;;;4998629;28;20768;-74
2023/08/20 04:29:01;;;;;;;8.90;8.00;;;23.70;99.90;;;;;;5010916;28;20891;-74
2023/08/20 04:31:27;;;;;;;6.90;6.20;;;23.70;99.90;;;;;;4981931;28;20224;-75
2023/08/20 04:34:01;;;;;;;6.97;6.30;;;23.60;99.90;;;;;;4996949;28;20457;-75
2023/08/20 04:36:39;;;;;;;10.07;6.83;;;23.60;99.90;;;;;;4996255;28;21128;-75
2023/08/20 04:39:04;;;;;;;8.23;6.60;;;23.60;99.90;;;;;;5000067;28;20561;-74
2023/08/20 04:41:33;;;;;;;11.97;6.80;;;23.60;99.90;;;;;;4999150;28;20216;-74
2023/08/20 04:43:59;;;;;;;8.30;6.07;;;23.40;99.90;;;;;;5012659;28;20470;-74
2023/08/20 04:46:25;;;;;;;6.80;6.00;;;23.00;99.90;;;;;;4999650;28;20460;-75
2023/08/20 04:48:51;;;;;;;8.67;7.47;;;23.00;99.90;;;;;;4996684;28;21061;-75
2023/08/20 04:51:18;;;;;;;7.90;7.17;;;23.10;99.90;;;;;;4998846;28;20234;-74
2023/08/20 04:53:44;;;;;;;7.60;6.90;;;23.30;99.90;;;;;;4993204;28;20490;-74
2023/08/20 04:56:09;;;;;;;7.47;6.77;;;23.30;99.90;;;;;;4997949;28;20733;-74
2023/08/20 04:58:35;;;;;;;7.43;6.73;;;23.40;99.90;;;;;;4999767;28;20265;-74
2023/08/20 05:01:01;;;;;;;7.60;6.90;;;23.40;99.90;;;;;;4993330;28;20296;-75
2023/08/20 05:03:28;;;;;;;7.50;6.13;;;23.50;99.90;;;;;;4998651;28;20227;-74
2023/08/20 05:05:54;;;;;;;8.43;7.10;;;23.50;99.90;;;;;;4994308;28;20597;-74
2023/08/20 05:08:19;;;;;;;7.13;6.10;;;23.50;99.90;;;;;;4999200;28;20223;-74
2023/08/20 05:10:45;;;;;;;7.87;7.07;;;23.50;99.90;;;;;;4994112;28;20283;-75
2023/08/20 05:13:11;;;;;;;7.83;6.83;;;23.50;99.90;;;;;;4997510;28;20246;-74
2023/08/20 05:15:36;;;;;;;6.50;5.90;;;23.50;99.90;;;;;;4996521;28;20335;-75
2023/08/20 05:18:02;;;;;;;6.83;6.23;;;23.50;99.90;;;;;;5013735;28;20223;-75
2023/08/20 05:20:28;;;;;;;7.33;6.60;;;23.50;99.90;;;;;;5015244;28;20297;-75
2023/08/20 05:22:54;;;;;;;7.93;7.00;;;23.50;99.90;;;;;;5010810;28;20244;-74
2023/08/20 05:25:19;;;;;;;8.43;6.23;;;23.50;99.90;;;;;;5016184;28;20400;-74
2023/08/20 05:27:46;;;;;;;7.57;6.87;;;23.50;99.90;;;;;;4994316;28;20219;-74
2023/08/20 05:30:12;;;;;;;7.50;6.90;;;23.50;99.90;;;;;;4998552;28;20465;-75
2023/08/20 05:32:38;;;;;;;7.70;6.90;;;23.50;99.90;;;;;;4996573;28;20220;-75
2023/08/20 05:35:04;;;;;;;7.43;6.70;;;23.50;99.90;;;;;;4997243;28;20226;-74
2023/08/20 05:37:30;;;;;;;8.60;7.10;;;23.60;99.90;;;;;;4987859;28;20223;-74
2023/08/20 05:39:56;;;;;;;7.23;6.57;;;23.60;99.90;;;;;;4994509;28;20837;-75
2023/08/20 05:42:22;;;;;;;8.13;7.33;;;23.60;99.90;;;;;;4998380;28;20263;-74
2023/08/20 05:44:53;;;;;;;7.07;6.37;;;23.60;99.90;;;;;;4995551;28;20254;-74
2023/08/20 05:47:24;;;;;;;6.83;6.23;;;23.60;99.90;;;;;;4997119;28;20478;-74
2023/08/20 05:49:49;;;;;;;8.07;7.37;;;23.60;99.90;;;;;;4995223;28;20462;-74
2023/08/20 05:52:16;;;;;;;7.50;6.80;;;23.60;99.90;;;;;;4996535;28;20219;-74
2023/08/20 05:54:43;;;;;;;7.33;6.63;;;23.60;99.90;;;;;;4995118;28;20552;-75
2023/08/20 05:57:09;;;;;;;6.50;5.90;;;23.60;99.90;;;;;;4999555;28;20648;-74
2023/08/20 05:59:35;;;;;;;10.80;7.07;;;23.60;99.90;;;;;;4994444;28;20482;-74
2023/08/20 06:02:02;;;;;;;7.40;6.60;;;23.60;99.90;;;;;;5012863;28;20334;-75
2023/08/20 06:04:28;;;;;;;7.87;7.10;;;23.60;99.90;;;;;;4998031;28;20513;-75
2023/08/20 06:06:53;;;;;;;6.67;6.10;;;23.60;99.90;;;;;;4993402;28;21086;-75
2023/08/20 06:09:19;;;;;;;7.43;6.73;;;23.70;99.90;;;;;;4999282;28;20223;-75
2023/08/20 06:11:44;;;;;;;10.73;7.83;;;23.70;99.90;;;;;;5012484;28;20227;-76
2023/08/20 06:14:10;;;;;;;7.23;6.53;;;23.70;99.90;;;;;;4997352;28;20328;-75
2023/08/20 06:16:36;;;;;;;8.03;6.97;;;23.70;99.90;;;;;;4999269;28;20223;-75
2023/08/20 06:19:01;;;;;;;9.40;6.47;;;23.70;99.90;;;;;;5011972;28;20237;-75
2023/08/20 06:21:27;;;;;;;9.60;6.40;;;23.70;99.90;;;;;;4995965;28;20228;-75
2023/08/20 06:23:53;;;;;;;7.37;6.53;;;23.70;99.90;;;;;;4977401;28;20393;-75
2023/08/20 06:26:20;;;;;;;7.73;6.40;;;23.80;99.90;;;;;;4997768;28;21059;-75
2023/08/20 06:28:46;;;;;;;7.17;6.50;;;23.80;99.90;;;;;;4991092;28;20211;-74
2023/08/20 06:31:11;;;;;;;7.27;5.67;;;23.80;99.90;;;;;;4998438;28;20954;-75
2023/08/20 06:33:38;;;;;;;6.40;5.80;;;23.80;99.90;;;;;;4995322;28;20246;-74
2023/08/20 06:36:04;;;;;;;6.20;5.60;;;23.80;99.90;;;;;;4995743;28;20307;-75
2023/08/20 06:38:29;;;;;;;6.87;5.87;;;23.80;99.90;;;;;;4999945;28;20461;-74
2023/08/20 06:40:56;;;;;;;6.23;5.63;;;23.80;99.90;;;;;;5012678;28;20342;-74
2023/08/20 06:43:21;;;;;;;6.20;5.67;;;23.80;99.90;;;;;;5016227;28;20934;-74
2023/08/20 06:45:47;;;;;;;8.67;5.83;;;23.90;99.90;;;;;;5011274;28;20539;-75
2023/08/20 06:48:13;;;;;;;7.37;6.67;;;23.90;99.90;;;;;;4999066;28;20394;-75
2023/08/20 06:50:41;;;;;;;5.73;5.13;;;23.90;99.90;;;;;;4993298;28;20338;-75
2023/08/20 06:53:06;;;;;;;6.20;5.60;;;23.90;99.90;;;;;;5017575;28;20243;-74
2023/08/20 06:55:32;;;;;;;6.30;5.70;;;23.90;99.90;;;;;;5013046;28;20463;-74
2023/08/20 06:57:58;;;;;;;7.43;5.27;;;23.90;99.90;;;;;;4996184;28;20216;-75
2023/08/20 07:00:23;;;;;;;6.27;5.67;;;24.00;99.90;;;;;;4995730;28;20227;-74
2023/08/20 07:02:49;;;;;;;5.93;5.40;;;24.00;99.90;;;;;;4996762;28;20222;-74
2023/08/20 07:05:15;;;;;;;6.73;5.80;;;24.10;99.90;;;;;;5015029;28;20607;-74
2023/08/20 07:07:40;;;;;;;5.77;5.20;;;24.10;99.90;;;;;;4995116;28;20957;-74
2023/08/20 07:10:07;;;;;;;6.93;6.20;;;24.10;99.90;;;;;;5012799;28;20811;-75
2023/08/20 07:12:32;;;;;;;6.50;5.90;;;24.20;99.90;;;;;;5015223;28;20265;-74
2023/08/20 07:14:58;;;;;;;6.23;5.53;;;24.20;99.90;;;;;;4994027;28;20462;-74
2023/08/20 07:17:24;;;;;;;6.13;5.57;;;24.20;99.90;;;;;;5015195;28;20687;-75
2023/08/20 07:19:49;;;;;;;6.57;5.70;;;24.30;99.90;;;;;;4993005;28;20306;-75
2023/08/20 07:22:15;;;;;;;7.70;5.20;;;24.30;99.90;;;;;;4999725;28;20269;-75
2023/08/20 07:24:40;;;;;;;8.30;5.90;;;24.40;99.90;;;;;;4992910;28;20259;-75
2023/08/20 07:27:10;;;;;;;5.93;5.33;;;24.40;99.90;;;;;;4998157;28;20288;-74
2023/08/20 07:29:36;;;;;;;7.23;6.23;;;24.40;99.90;;;;;;4994834;28;20222;-75
2023/08/20 07:32:03;;;;;;;5.80;5.30;;;24.50;99.90;;;;;;5033034;28;21064;-74
2023/08/20 07:34:30;;;;;;;5.53;5.03;;;24.50;99.90;;;;;;5031509;28;20237;-75
2023/08/20 07:36:56;;;;;;;6.53;5.93;;;24.60;99.90;;;;;;4992725;28;20470;-75
2023/08/20 07:39:22;;;;;;;7.80;6.07;;;24.70;99.90;;;;;;4993223;28;20668;-75
2023/08/20 07:41:48;;;;;;;7.20;6.33;;;24.80;99.90;;;;;;5008489;28;20462;-75
2023/08/20 07:44:13;;;;;;;6.33;5.80;;;24.80;99.90;;;;;;5013969;28;20227;-75
2023/08/20 07:46:39;;;;;;;6.50;5.90;;;24.90;99.90;;;;;;5012613;28;20366;-75
2023/08/20 07:49:05;;;;;;;7.00;6.30;;;25.00;99.90;;;;;;5017991;28;20227;-75
2023/08/20 07:51:30;;;;;;;6.13;5.53;;;25.10;99.90;;;;;;5030767;28;20408;-75
2023/08/20 07:53:58;;;;;;;5.97;5.47;;;25.20;99.90;;;;;;4992419;28;20243;-75
2023/08/20 07:56:23;;;;;;;7.97;6.10;;;25.20;99.90;;;;;;5014041;28;20227;-75
2023/08/20 07:58:49;;;;;;;6.10;5.50;;;25.30;99.90;;;;;;5010058;28;20568;-75
2023/08/20 08:01:15;;;;;;;10.37;6.37;;;25.30;99.90;;;;;;4995002;28;20702;-75
2023/08/20 08:03:41;;;;;;;6.73;6.10;;;25.50;99.90;;;;;;5009324;28;20775;-75
2023/08/20 08:06:06;;;;;;;6.87;6.27;;;25.50;99.90;;;;;;5029348;28;20215;-75
2023/08/20 08:08:32;;;;;;;6.60;6.00;;;25.50;99.90;;;;;;5015538;28;20719;-75
2023/08/20 08:10:58;;;;;;;6.83;6.13;;;25.60;99.90;;;;;;4991008;28;20234;-75
2023/08/20 08:13:23;;;;;;;9.30;6.53;;;25.50;99.90;;;;;;5012953;28;20231;-74
2023/08/20 08:15:50;;;;;;;8.50;6.60;;;25.70;99.90;;;;;;4992888;28;20224;-75
2023/08/20 08:18:16;;;;;;;6.00;5.50;;;25.90;99.90;;;;;;4996599;28;20259;-75
2023/08/20 08:20:42;;;;;;;10.17;6.50;;;25.90;99.90;;;;;;5009078;28;20470;-75
2023/08/20 08:23:08;;;;;;;6.80;6.20;;;25.90;99.90;;;;;;5014703;28;20827;-75
2023/08/20 08:25:33;;;;;;;6.70;6.10;;;26.00;99.90;;;;;;5013240;28;20819;-75
2023/08/20 08:27:59;;;;;;;7.80;6.27;;;26.10;99.90;;;;;;5012227;28;20258;-75
2023/08/20 08:30:25;;;;;;;6.83;6.23;;;26.10;99.90;;;;;;5029826;28;20228;-75
2023/08/20 08:32:50;;;;;;;6.20;5.70;;;26.20;99.90;;;;;;4995055;28;20261;-75
2023/08/20 08:35:17;;;;;;;7.87;5.87;;;26.20;99.90;;;;;;4999408;28;20698;-75
2023/08/20 08:37:43;;;;;;;7.67;6.97;;;26.40;99.90;;;;;;4993524;28;20361;-75
2023/08/20 08:40:09;;;;;;;7.63;6.37;;;26.60;99.90;;;;;;4998296;28;20656;-75
2023/08/20 08:42:35;;;;;;;6.27;5.77;;;26.80;99.90;;;;;;5013347;28;20342;-75
2023/08/20 08:45:01;;;;;;;6.70;6.10;;;26.80;99.90;;;;;;4993227;28;20755;-75
2023/08/20 08:47:28;;;;;;;7.97;6.73;;;26.80;99.90;;;;;;5014004;28;20834;-75
2023/08/20 08:49:58;;;;;;;7.37;6.67;;;27.00;99.90;;;;;;4991277;28;20600;-76
2023/08/20 08:52:25;;;;;;;8.40;6.93;;;27.10;99.90;;;;;;5029290;28;20482;-75
2023/08/20 08:54:52;;;;;;;7.43;6.40;;;27.10;99.90;;;;;;4982179;28;20222;-75
2023/08/20 08:57:18;;;;;;;6.07;5.57;;;27.30;99.90;;;;;;5015240;28;20704;-75
2023/08/20 08:59:44;;;;;;;7.22;6.53;;;27.40;99.90;;;;;;5008826;28;20477;-75
2023/08/20 09:02:11;;;;;;;6.33;5.83;;;27.50;99.90;;;;;;4996296;28;20251;-75
2023/08/20 09:04:41;;;;;;;7.50;6.40;;;27.60;99.90;;;;;;5011205;28;20298;-75
2023/08/20 09:07:16;;;;;;;7.43;6.72;;;27.70;99.90;;;;;;5014332;28;20235;-75
2023/08/20 09:09:43;;;;;;;9.23;7.28;;;27.80;99.90;;;;;;5011622;28;20246;-76
2023/08/20 09:12:14;;;;;;;6.45;5.85;;;27.80;99.90;;;;;;4998144;28;20242;-75
2023/08/20 09:14:43;;;;;;;6.82;6.25;;;27.80;99.90;;;;;;4992714;28;20238;-75
2023/08/20 09:17:09;;;;;;;8.35;6.75;;;28.00;99.90;;;;;;5027407;28;20238;-75
2023/08/20 09:19:37;;;;;;;7.75;7.00;;;28.00;99.90;;;;;;4978426;28;20211;-75
2023/08/20 09:22:03;;;;;;;7.70;7.00;;;28.20;99.90;;;;;;5013084;28;20811;-75
2023/08/20 09:24:46;;;;;;;7.78;6.97;;;28.30;99.90;;;;;;4996265;28;20228;-75
2023/08/20 09:27:13;;;;;;;7.10;6.40;;;28.30;99.90;;;;;;4995105;28;20233;-75
2023/08/20 09:29:45;;;;;;;7.28;6.68;;;28.40;99.90;;;;;;4992278;28;20586;-75
2023/08/20 09:32:25;;;;;;;6.15;5.55;;;28.50;99.90;;;;;;5014050;28;20231;-75
2023/08/20 09:34:53;;;;;;;9.32;6.63;;;28.60;99.90;;;;;;5024958;28;20231;-75
2023/08/20 09:37:20;;;;;;;6.90;6.20;;;28.80;99.90;;;;;;5013189;28;20282;-75
2023/08/20 09:39:46;;;;;;;6.30;5.63;;;28.90;99.90;;;;;;5026404;28;20257;-75
2023/08/20 09:42:12;;;;;;;6.15;5.55;;;29.00;99.90;;;;;;5014372;28;20223;-75
2023/08/20 09:44:43;;;;;;;6.80;6.20;;;29.10;99.90;;;;;;4994453;28;20724;-75
2023/08/20 09:47:14;;;;;;;7.93;6.25;;;29.10;99.90;;;;;;5011333;28;20601;-76
2023/08/20 09:49:47;;;;;;;7.25;6.55;;;29.00;99.90;;;;;;4991879;28;20230;-75
2023/08/20 09:52:17;;;;;;;6.53;5.78;;;29.20;99.90;;;;;;5011209;28;20227;-75
2023/08/20 09:55:08;;;;;;;6.63;6.03;;;29.20;99.90;;;;;;5008891;28;20227;-75
2023/08/20 09:57:36;;;;;;;7.22;6.30;;;29.20;99.90;;;;;;4998046;28;20236;-75
2023/08/20 10:00:05;;;;;;;7.13;6.45;;;29.10;99.90;;;;;;4995054;28;20335;-75
2023/08/20 10:02:40;;;;;;;6.85;6.15;;;29.40;99.90;;;;;;4994147;28;20223;-76
2023/08/20 10:05:07;;;;;;;6.78;6.18;;;29.60;99.90;;;;;;4981543;28;20223;-75
2023/08/20 10:07:34;;;;;;;6.82;6.13;;;29.50;99.90;;;;;;5029092;28;20258;-75
2023/08/20 10:10:01;;;;;;;8.43;6.47;;;29.70;99.90;;;;;;5010586;28;20227;-75
2023/08/20 10:12:28;;;;;;;7.05;6.35;;;29.80;99.90;;;;;;4997164;28;20259;-75
2023/08/20 10:14:57;;;;;;;7.68;6.97;;;29.90;99.90;;;;;;4992357;28;20810;-76
2023/08/20 10:17:24;;;;;;;7.65;6.90;;;30.10;99.90;;;;;;4997707;28;20823;-75
2023/08/20 10:19:53;;;;;;;6.72;6.13;;;30.10;99.90;;;;;;4993990;28;20943;-75
2023/08/20 10:22:19;;;;;;;6.85;6.28;;;30.20;99.90;;;;;;4998729;28;20227;-76
2023/08/20 10:24:52;;;;;;;7.10;6.47;;;30.50;99.90;;;;;;5009534;28;20224;-76
2023/08/20 10:27:31;;;;;;;7.00;6.30;;;30.70;99.90;;;;;;4997327;28;20229;-76
2023/08/20 10:29:58;;;;;;;6.38;5.88;;;30.70;99.90;;;;;;5027391;28;20261;-75
2023/08/20 10:32:43;;;;;;;6.78;6.28;;;30.50;99.90;;;;;;4981929;28;20286;-75
2023/08/20 10:35:09;;;;;;;7.13;6.55;;;30.40;99.90;;;;;;5018964;28;20631;-75
2023/08/20 10:37:37;;;;;;;7.55;5.95;;;30.40;99.90;;;;;;5034655;28;20232;-75
2023/08/20 10:40:04;;;;;;;9.32;6.72;;;30.30;99.90;;;;;;4993754;28;20230;-76
2023/08/20 10:42:30;;;;;;;6.22;5.72;;;30.30;99.90;;;;;;4999271;28;20231;-75
2023/08/20 10:45:00;;;;;;;6.68;6.03;;;30.30;99.90;;;;;;5028933;28;20289;-75
2023/08/20 10:47:41;;;;;;;6.45;5.68;;;30.10;99.90;;;;;;5002972;28;20227;-75
2023/08/20 10:50:14;;;;;;;6.18;5.65;;;30.20;99.90;;;;;;5037401;28;20227;-76
2023/08/20 10:52:41;;;;;;;6.90;6.30;;;30.80;99.90;;;;;;5017960;28;20228;-75
2023/08/20 10:55:09;;;;;;;6.53;5.93;;;30.90;99.90;;;;;;5015306;28;20269;-76
2023/08/20 10:57:36;;;;;;;6.70;6.20;;;31.00;99.90;;;;;;5030109;28;20313;-75
2023/08/20 11:00:09;;;;;;;5.82;5.43;;;31.00;99.90;;;;;;5009637;28;20224;-75
2023/08/20 11:02:36;;;;;;;6.30;5.65;;;31.20;99.90;;;;;;5009368;28;20299;-76
2023/08/20 11:05:04;;;;;;;6.25;5.75;;;31.40;99.90;;;;;;4994275;28;20342;-74
2023/08/20 11:07:31;;;;;;;5.88;5.47;;;31.60;99.90;;;;;;5000718;28;20344;-74
2023/08/20 11:09:57;;;;;;;6.03;5.43;;;31.90;99.90;;;;;;5026458;28;20339;-76
2023/08/20 11:12:23;;;;;;;5.95;5.45;;;31.90;99.90;;;;;;5014458;28;20224;-75
2023/08/20 11:14:49;;;;;;;6.85;6.25;;;32.10;99.90;;;;;;5026013;28;20266;-76
2023/08/20 11:17:15;;;;;;;6.93;6.10;;;32.20;99.90;;;;;;4999595;28;20239;-77
2023/08/20 11:19:41;;;;;;;6.63;6.07;;;32.10;99.90;;;;;;4976809;28;20243;-76
2023/08/20 11:22:07;;;;;;;5.68;5.28;;;32.00;99.90;;;;;;5000894;28;20220;-75
2023/08/20 11:24:33;;;;;;;6.57;5.72;;;32.20;99.90;;;;;;5019997;28;20250;-76
2023/08/20 11:26:59;;;;;;;8.02;6.32;;;32.40;99.90;;;;;;5016907;28;20288;-75
2023/08/20 11:29:26;;;;;;;8.20;6.47;;;32.70;99.90;;;;;;5005054;28;20874;-76
2023/08/20 11:31:52;;;;;;;6.63;6.10;;;32.70;99.90;;;;;;4999832;28;20224;-75
2023/08/20 11:34:21;;;;;;;6.55;5.90;;;32.80;99.90;;;;;;5021533;28;20308;-76
2023/08/20 11:36:48;;;;;;;6.95;6.25;;;32.90;99.90;;;;;;5014960;28;20224;-76
2023/08/20 11:39:13;;;;;;;6.05;5.55;;;32.90;99.90;;;;;;5005281;28;20651;-75
2023/08/20 11:41:40;;;;;;;5.72;5.32;;;33.00;99.90;;;;;;4993064;28;20315;-74
2023/08/20 11:44:08;;;;;;;7.45;5.75;;;32.80;99.90;;;;;;5012996;28;20826;-74
2023/08/20 11:46:42;;;;;;;6.00;5.60;;;32.90;99.90;;;;;;4993389;28;20342;-73
2023/08/20 11:49:09;;;;;;;6.50;6.00;;;33.20;99.90;;;;;;5002335;28;20232;-74
2023/08/20 11:51:49;;;;;;;5.60;5.20;;;33.30;99.90;;;;;;4993901;28;20860;-74
2023/08/20 11:54:16;;;;;;;6.60;6.00;;;33.40;99.90;;;;;;4995675;28;20250;-75
2023/08/20 11:56:47;;;;;;;5.95;5.45;;;33.10;99.90;;;;;;5024422;28;20222;-75
2023/08/20 11:59:13;;;;;;;5.68;5.28;;;33.10;99.90;;;;;;5030163;28;20231;-75
2023/08/20 12:01:39;;;;;;;6.72;5.68;;;33.20;99.90;;;;;;4990320;28;20273;-74
2023/08/20 12:04:07;;;;;;;10.27;6.40;;;33.50;99.90;;;;;;4993136;28;20224;-75
2023/08/20 12:06:34;;;;;;;6.03;5.43;;;33.60;99.90;;;;;;5013383;28;20682;-75
2023/08/20 12:09:00;;;;;;;6.05;5.47;;;33.70;99.90;;;;;;4992724;28;20308;-75
2023/08/20 12:11:28;;;;;;;4.80;4.50;;;33.70;99.90;;;;;;4997078;28;20239;-75
2023/08/20 12:13:54;;;;;;;9.57;5.72;;;33.60;99.90;;;;;;4989018;28;20308;-75
2023/08/20 12:16:24;;;;;;;5.72;5.22;;;33.50;99.90;;;;;;5012417;28;20351;-75
2023/08/20 12:18:50;;;;;;;5.88;5.38;;;33.50;99.90;;;;;;4973861;28;20741;-75
2023/08/20 12:21:16;;;;;;;7.20;6.40;;;33.30;99.90;;;;;;5010762;28;20361;-75
2023/08/20 12:23:42;;;;;;;8.23;5.28;;;33.10;99.90;;;;;;5004449;28;20223;-75
2023/08/20 12:26:08;;;;;;;5.90;5.40;;;33.30;99.90;;;;;;4994545;28;20216;-75
2023/08/20 12:28:34;;;;;;;6.15;5.75;;;33.70;99.90;;;;;;5008373;28;20731;-75
2023/08/20 12:31:00;;;;;;;9.32;5.45;;;33.80;99.90;;;;;;5007541;28;20380;-75
2023/08/20 12:33:26;;;;;;;5.93;5.53;;;33.80;99.90;;;;;;5012195;28;20224;-75
2023/08/20 12:35:55;;;;;;;6.40;5.80;;;33.70;99.90;;;;;;5023365;28;20223;-75
2023/08/20 12:38:21;;;;;;;5.00;4.60;;;33.70;99.90;;;;;;5012599;28;20222;-75
2023/08/20 12:40:47;;;;;;;6.32;5.57;;;33.50;99.90;;;;;;5006320;28;20288;-75
2023/08/20 12:43:13;;;;;;;5.93;5.43;;;33.30;99.90;;;;;;5011040;28;20226;-75
2023/08/20 12:45:39;;;;;;;5.35;4.93;;;33.20;99.90;;;;;;4988717;28;20371;-75